sensor_id;sensor_type;location;lat;lon;timestamp;P1;durP1;ratioP1;P2;durP2;ratioP2
31754;SDS011;18325;52.018;4.726;2024-01-27T00:01:24;6.57;;;3.00;;
31754;SDS011;18325;52.018;4.726;2024-01-27T00:03:57;9.03;;;2.63;;
31754;SDS011;18325;52.018;4.726;2024-01-27T00:06:25;5.57;;;2.13;;
31754;SDS011;18325;52.018;4.726;2024-01-27T00:08:54;10.50;;;2.90;;
31754;SDS011;18325;52.018;4.726;2024-01-27T00:11:23;7.73;;;2.70;;
31754;SDS011;18325;52.018;4.726;2024-01-27T00:13:49;9.03;;;2.83;;
31754;SDS011;18325;52.018;4.726;2024-01-27T00:16:16;18.77;;;3.20;;
31754;SDS011;18325;52.018;4.726;2024-01-27T00:18:43;12.20;;;3.67;;
31754;SDS011;18325;52.018;4.726;2024-01-27T00:21:09;12.60;;;2.40;;
31754;SDS011;18325;52.018;4.726;2024-01-27T00:23:44;10.07;;;2.37;;
31754;SDS011;18325;52.018;4.726;2024-01-27T00:26:11;8.50;;;2.03;;
31754;SDS011;18325;52.018;4.726;2024-01-27T00:28:45;5.63;;;2.00;;
31754;SDS011;18325;52.018;4.726;2024-01-27T00:34:24;11.60;;;2.80;;
31754;SDS011;18325;52.018;4.726;2024-01-27T00:36:51;9.67;;;2.70;;
31754;SDS011;18325;52.018;4.726;2024-01-27T00:39:17;8.20;;;3.20;;
31754;SDS011;18325;52.018;4.726;2024-01-27T00:41:48;10.10;;;2.63;;
31754;SDS011;18325;52.018;4.726;2024-01-27T00:44:44;7.43;;;2.70;;
31754;SDS011;18325;52.018;4.726;2024-01-27T00:47:26;8.67;;;2.40;;
31754;SDS011;18325;52.018;4.726;2024-01-27T00:50:03;7.87;;;2.67;;
31754;SDS011;18325;52.018;4.726;2024-01-27T00:53:09;9.80;;;2.03;;
31754;SDS011;18325;52.018;4.726;2024-01-27T00:55:53;7.57;;;2.13;;
31754;SDS011;18325;52.018;4.726;2024-01-27T01:04:56;7.07;;;1.57;;
31754;SDS011;18325;52.018;4.726;2024-01-27T01:07:23;7.33;;;2.03;;
31754;SDS011;18325;52.018;4.726;2024-01-27T01:09:53;5.53;;;1.60;;
31754;SDS011;18325;52.018;4.726;2024-01-27T01:12:30;9.87;;;2.53;;
31754;SDS011;18325;52.018;4.726;2024-01-27T01:15:03;9.60;;;2.63;;
31754;SDS011;18325;52.018;4.726;2024-01-27T01:17:47;6.60;;;1.80;;
31754;SDS011;18325;52.018;4.726;2024-01-27T01:20:23;4.93;;;1.70;;
31754;SDS011;18325;52.018;4.726;2024-01-27T01:23:00;11.17;;;1.90;;
31754;SDS011;18325;52.018;4.726;2024-01-27T01:25:53;3.93;;;1.40;;
31754;SDS011;18325;52.018;4.726;2024-01-27T01:28:21;6.27;;;1.77;;
31754;SDS011;18325;52.018;4.726;2024-01-27T01:30:52;7.77;;;2.00;;
31754;SDS011;18325;52.018;4.726;2024-01-27T01:33:33;3.17;;;1.63;;
31754;SDS011;18325;52.018;4.726;2024-01-27T01:36:01;7.27;;;1.80;;
31754;SDS011;18325;52.018;4.726;2024-01-27T01:38:33;5.63;;;1.73;;
31754;SDS011;18325;52.018;4.726;2024-01-27T01:40:59;9.07;;;1.77;;
31754;SDS011;18325;52.018;4.726;2024-01-27T01:43:26;7.73;;;1.40;;
31754;SDS011;18325;52.018;4.726;2024-01-27T01:45:53;5.23;;;1.40;;
31754;SDS011;18325;52.018;4.726;2024-01-27T01:48:20;6.07;;;1.80;;
31754;SDS011;18325;52.018;4.726;2024-01-27T01:50:48;10.17;;;1.60;;
31754;SDS011;18325;52.018;4.726;2024-01-27T01:53:15;6.07;;;1.77;;
31754;SDS011;18325;52.018;4.726;2024-01-27T01:55:42;9.40;;;2.70;;
31754;SDS011;18325;52.018;4.726;2024-01-27T01:58:23;8.70;;;2.03;;
31754;SDS011;18325;52.018;4.726;2024-01-27T02:00:49;3.50;;;1.13;;
31754;SDS011;18325;52.018;4.726;2024-01-27T02:03:16;5.53;;;1.80;;
31754;SDS011;18325;52.018;4.726;2024-01-27T02:05:42;5.97;;;1.53;;
31754;SDS011;18325;52.018;4.726;2024-01-27T02:08:10;5.60;;;1.43;;
31754;SDS011;18325;52.018;4.726;2024-01-27T02:10:37;4.70;;;1.03;;
31754;SDS011;18325;52.018;4.726;2024-01-27T02:13:04;2.50;;;1.53;;
31754;SDS011;18325;52.018;4.726;2024-01-27T02:15:31;4.43;;;1.33;;
31754;SDS011;18325;52.018;4.726;2024-01-27T02:17:58;5.97;;;1.33;;
31754;SDS011;18325;52.018;4.726;2024-01-27T02:20:25;2.93;;;1.40;;
31754;SDS011;18325;52.018;4.726;2024-01-27T02:22:51;2.43;;;0.90;;
31754;SDS011;18325;52.018;4.726;2024-01-27T02:25:19;4.20;;;1.70;;
31754;SDS011;18325;52.018;4.726;2024-01-27T02:27:46;5.47;;;1.60;;
31754;SDS011;18325;52.018;4.726;2024-01-27T02:30:13;6.40;;;1.57;;
31754;SDS011;18325;52.018;4.726;2024-01-27T02:32:40;5.23;;;1.37;;
31754;SDS011;18325;52.018;4.726;2024-01-27T02:35:06;6.50;;;1.17;;
31754;SDS011;18325;52.018;4.726;2024-01-27T02:37:33;3.60;;;1.03;;
31754;SDS011;18325;52.018;4.726;2024-01-27T02:40:00;4.83;;;1.60;;
31754;SDS011;18325;52.018;4.726;2024-01-27T02:42:28;4.87;;;1.57;;
31754;SDS011;18325;52.018;4.726;2024-01-27T02:44:55;4.40;;;1.00;;
31754;SDS011;18325;52.018;4.726;2024-01-27T02:47:21;5.60;;;1.33;;
31754;SDS011;18325;52.018;4.726;2024-01-27T02:49:48;3.67;;;1.10;;
31754;SDS011;18325;52.018;4.726;2024-01-27T02:52:14;9.13;;;1.23;;
31754;SDS011;18325;52.018;4.726;2024-01-27T02:54:41;2.37;;;1.13;;
31754;SDS011;18325;52.018;4.726;2024-01-27T02:57:08;3.50;;;0.80;;
31754;SDS011;18325;52.018;4.726;2024-01-27T02:59:36;2.63;;;0.83;;
31754;SDS011;18325;52.018;4.726;2024-01-27T03:02:03;4.13;;;1.23;;
31754;SDS011;18325;52.018;4.726;2024-01-27T03:04:30;5.60;;;1.30;;
31754;SDS011;18325;52.018;4.726;2024-01-27T03:06:57;6.53;;;1.33;;
31754;SDS011;18325;52.018;4.726;2024-01-27T03:09:23;4.57;;;1.60;;
31754;SDS011;18325;52.018;4.726;2024-01-27T03:11:50;3.67;;;1.00;;
31754;SDS011;18325;52.018;4.726;2024-01-27T03:14:17;6.00;;;1.30;;
31754;SDS011;18325;52.018;4.726;2024-01-27T03:16:45;7.67;;;1.30;;
31754;SDS011;18325;52.018;4.726;2024-01-27T03:19:11;12.47;;;1.67;;
31754;SDS011;18325;52.018;4.726;2024-01-27T03:21:38;6.03;;;1.27;;
31754;SDS011;18325;52.018;4.726;2024-01-27T03:24:05;4.33;;;1.70;;
31754;SDS011;18325;52.018;4.726;2024-01-27T03:26:32;5.57;;;1.57;;
31754;SDS011;18325;52.018;4.726;2024-01-27T03:28:58;5.57;;;1.80;;
31754;SDS011;18325;52.018;4.726;2024-01-27T03:31:29;6.40;;;1.63;;
31754;SDS011;18325;52.018;4.726;2024-01-27T03:33:57;12.03;;;2.13;;
31754;SDS011;18325;52.018;4.726;2024-01-27T03:36:24;2.93;;;1.23;;
31754;SDS011;18325;52.018;4.726;2024-01-27T03:38:50;5.73;;;1.77;;
31754;SDS011;18325;52.018;4.726;2024-01-27T03:41:17;9.37;;;2.00;;
31754;SDS011;18325;52.018;4.726;2024-01-27T03:43:44;5.93;;;1.90;;
31754;SDS011;18325;52.018;4.726;2024-01-27T03:46:10;2.40;;;1.93;;
31754;SDS011;18325;52.018;4.726;2024-01-27T03:48:37;11.97;;;2.57;;
31754;SDS011;18325;52.018;4.726;2024-01-27T03:51:05;5.83;;;2.87;;
31754;SDS011;18325;52.018;4.726;2024-01-27T03:53:31;7.57;;;2.53;;
31754;SDS011;18325;52.018;4.726;2024-01-27T03:55:58;6.80;;;2.00;;
31754;SDS011;18325;52.018;4.726;2024-01-27T03:58:27;6.30;;;2.60;;
31754;SDS011;18325;52.018;4.726;2024-01-27T04:00:54;7.00;;;3.03;;
31754;SDS011;18325;52.018;4.726;2024-01-27T04:03:22;13.10;;;3.57;;
31754;SDS011;18325;52.018;4.726;2024-01-27T04:05:48;4.30;;;3.20;;
31754;SDS011;18325;52.018;4.726;2024-01-27T04:08:16;6.57;;;3.10;;
31754;SDS011;18325;52.018;4.726;2024-01-27T04:10:43;13.40;;;3.23;;
31754;SDS011;18325;52.018;4.726;2024-01-27T04:13:09;11.43;;;3.27;;
31754;SDS011;18325;52.018;4.726;2024-01-27T04:15:36;5.57;;;3.33;;
31754;SDS011;18325;52.018;4.726;2024-01-27T04:18:03;5.47;;;2.63;;
31754;SDS011;18325;52.018;4.726;2024-01-27T04:20:30;11.33;;;3.67;;
31754;SDS011;18325;52.018;4.726;2024-01-27T04:22:57;9.30;;;3.60;;
31754;SDS011;18325;52.018;4.726;2024-01-27T04:25:25;5.90;;;3.20;;
31754;SDS011;18325;52.018;4.726;2024-01-27T04:27:52;7.00;;;3.20;;
31754;SDS011;18325;52.018;4.726;2024-01-27T04:30:19;10.63;;;4.03;;
31754;SDS011;18325;52.018;4.726;2024-01-27T04:32:46;5.33;;;3.23;;
31754;SDS011;18325;52.018;4.726;2024-01-27T04:35:14;8.90;;;3.23;;
31754;SDS011;18325;52.018;4.726;2024-01-27T04:37:41;8.80;;;4.13;;
31754;SDS011;18325;52.018;4.726;2024-01-27T04:40:09;16.80;;;5.80;;
31754;SDS011;18325;52.018;4.726;2024-01-27T04:42:38;8.53;;;3.83;;
31754;SDS011;18325;52.018;4.726;2024-01-27T04:45:05;6.97;;;4.07;;
31754;SDS011;18325;52.018;4.726;2024-01-27T04:47:32;9.30;;;4.30;;
31754;SDS011;18325;52.018;4.726;2024-01-27T04:49:59;8.60;;;4.23;;
31754;SDS011;18325;52.018;4.726;2024-01-27T04:52:25;10.70;;;3.57;;
31754;SDS011;18325;52.018;4.726;2024-01-27T04:54:52;10.77;;;3.33;;
31754;SDS011;18325;52.018;4.726;2024-01-27T04:57:18;6.93;;;3.43;;
31754;SDS011;18325;52.018;4.726;2024-01-27T04:59:46;9.93;;;3.90;;
31754;SDS011;18325;52.018;4.726;2024-01-27T05:02:13;5.93;;;3.70;;
31754;SDS011;18325;52.018;4.726;2024-01-27T05:04:40;6.93;;;3.33;;
31754;SDS011;18325;52.018;4.726;2024-01-27T05:07:06;8.83;;;3.37;;
31754;SDS011;18325;52.018;4.726;2024-01-27T05:09:33;6.47;;;3.07;;
31754;SDS011;18325;52.018;4.726;2024-01-27T05:12:01;6.93;;;3.73;;
31754;SDS011;18325;52.018;4.726;2024-01-27T05:14:27;9.33;;;3.63;;
31754;SDS011;18325;52.018;4.726;2024-01-27T05:16:56;5.97;;;4.10;;
31754;SDS011;18325;52.018;4.726;2024-01-27T05:19:22;7.27;;;3.90;;
31754;SDS011;18325;52.018;4.726;2024-01-27T05:21:49;7.13;;;3.73;;
31754;SDS011;18325;52.018;4.726;2024-01-27T05:24:15;8.20;;;3.97;;
31754;SDS011;18325;52.018;4.726;2024-01-27T05:26:42;12.97;;;5.00;;
31754;SDS011;18325;52.018;4.726;2024-01-27T05:29:08;9.10;;;3.80;;
31754;SDS011;18325;52.018;4.726;2024-01-27T05:31:35;8.67;;;4.43;;
31754;SDS011;18325;52.018;4.726;2024-01-27T05:34:03;12.00;;;3.73;;
31754;SDS011;18325;52.018;4.726;2024-01-27T05:36:30;10.70;;;2.90;;
31754;SDS011;18325;52.018;4.726;2024-01-27T05:38:57;13.57;;;3.83;;
31754;SDS011;18325;52.018;4.726;2024-01-27T05:41:25;5.37;;;3.17;;
31754;SDS011;18325;52.018;4.726;2024-01-27T05:43:52;6.90;;;3.67;;
31754;SDS011;18325;52.018;4.726;2024-01-27T05:46:19;5.67;;;3.63;;
31754;SDS011;18325;52.018;4.726;2024-01-27T05:48:45;11.43;;;3.67;;
31754;SDS011;18325;52.018;4.726;2024-01-27T05:51:17;7.77;;;4.00;;
31754;SDS011;18325;52.018;4.726;2024-01-27T05:53:43;9.03;;;3.30;;
31754;SDS011;18325;52.018;4.726;2024-01-27T05:56:10;7.73;;;4.10;;
31754;SDS011;18325;52.018;4.726;2024-01-27T05:58:37;9.67;;;4.00;;
31754;SDS011;18325;52.018;4.726;2024-01-27T06:01:03;4.03;;;3.27;;
31754;SDS011;18325;52.018;4.726;2024-01-27T06:03:30;7.13;;;3.97;;
31754;SDS011;18325;52.018;4.726;2024-01-27T06:05:56;8.33;;;4.07;;
31754;SDS011;18325;52.018;4.726;2024-01-27T06:08:24;7.40;;;3.80;;
31754;SDS011;18325;52.018;4.726;2024-01-27T06:10:51;6.73;;;3.33;;
31754;SDS011;18325;52.018;4.726;2024-01-27T06:13:17;8.40;;;3.67;;
31754;SDS011;18325;52.018;4.726;2024-01-27T06:15:44;13.27;;;4.43;;
31754;SDS011;18325;52.018;4.726;2024-01-27T06:18:11;12.40;;;4.00;;
31754;SDS011;18325;52.018;4.726;2024-01-27T06:20:37;10.37;;;4.20;;
31754;SDS011;18325;52.018;4.726;2024-01-27T06:23:05;5.23;;;3.97;;
31754;SDS011;18325;52.018;4.726;2024-01-27T06:25:33;5.40;;;3.53;;
31754;SDS011;18325;52.018;4.726;2024-01-27T06:28:00;5.57;;;4.07;;
31754;SDS011;18325;52.018;4.726;2024-01-27T06:30:26;9.87;;;4.87;;
31754;SDS011;18325;52.018;4.726;2024-01-27T06:32:53;7.87;;;3.57;;
31754;SDS011;18325;52.018;4.726;2024-01-27T06:35:20;7.43;;;4.33;;
31754;SDS011;18325;52.018;4.726;2024-01-27T06:37:46;8.00;;;3.93;;
31754;SDS011;18325;52.018;4.726;2024-01-27T06:40:13;9.90;;;4.97;;
31754;SDS011;18325;52.018;4.726;2024-01-27T06:42:41;5.27;;;3.60;;
31754;SDS011;18325;52.018;4.726;2024-01-27T06:45:08;8.00;;;4.13;;
31754;SDS011;18325;52.018;4.726;2024-01-27T06:47:35;7.20;;;4.03;;
31754;SDS011;18325;52.018;4.726;2024-01-27T06:50:02;7.70;;;3.83;;
31754;SDS011;18325;52.018;4.726;2024-01-27T06:52:28;10.10;;;4.63;;
31754;SDS011;18325;52.018;4.726;2024-01-27T06:54:55;14.27;;;4.03;;
31754;SDS011;18325;52.018;4.726;2024-01-27T06:57:22;9.00;;;4.20;;
31754;SDS011;18325;52.018;4.726;2024-01-27T06:59:51;9.93;;;4.57;;
31754;SDS011;18325;52.018;4.726;2024-01-27T07:02:18;9.13;;;4.67;;
31754;SDS011;18325;52.018;4.726;2024-01-27T07:04:45;11.07;;;4.77;;
31754;SDS011;18325;52.018;4.726;2024-01-27T07:07:12;9.80;;;3.73;;
31754;SDS011;18325;52.018;4.726;2024-01-27T07:09:38;10.20;;;4.17;;
31754;SDS011;18325;52.018;4.726;2024-01-27T07:12:06;5.67;;;3.37;;
31754;SDS011;18325;52.018;4.726;2024-01-27T07:14:34;8.00;;;4.97;;
31754;SDS011;18325;52.018;4.726;2024-01-27T07:17:02;9.13;;;5.47;;
31754;SDS011;18325;52.018;4.726;2024-01-27T07:19:30;10.13;;;4.83;;
31754;SDS011;18325;52.018;4.726;2024-01-27T07:21:56;7.33;;;3.77;;
31754;SDS011;18325;52.018;4.726;2024-01-27T07:24:23;6.60;;;4.47;;
31754;SDS011;18325;52.018;4.726;2024-01-27T07:26:49;11.03;;;4.27;;
31754;SDS011;18325;52.018;4.726;2024-01-27T07:29:16;16.23;;;4.77;;
31754;SDS011;18325;52.018;4.726;2024-01-27T07:31:42;8.53;;;4.97;;
31754;SDS011;18325;52.018;4.726;2024-01-27T07:34:11;8.17;;;4.23;;
31754;SDS011;18325;52.018;4.726;2024-01-27T07:36:37;9.83;;;4.37;;
31754;SDS011;18325;52.018;4.726;2024-01-27T07:39:04;6.00;;;4.20;;
31754;SDS011;18325;52.018;4.726;2024-01-27T07:41:30;10.07;;;4.23;;
31754;SDS011;18325;52.018;4.726;2024-01-27T07:43:57;12.93;;;4.47;;
31754;SDS011;18325;52.018;4.726;2024-01-27T07:46:24;10.47;;;4.80;;
31754;SDS011;18325;52.018;4.726;2024-01-27T07:48:50;10.20;;;4.90;;
31754;SDS011;18325;52.018;4.726;2024-01-27T07:51:19;12.03;;;4.50;;
31754;SDS011;18325;52.018;4.726;2024-01-27T07:53:45;9.27;;;4.80;;
31754;SDS011;18325;52.018;4.726;2024-01-27T07:56:12;8.00;;;4.17;;
31754;SDS011;18325;52.018;4.726;2024-01-27T07:58:39;8.43;;;4.73;;
31754;SDS011;18325;52.018;4.726;2024-01-27T08:01:05;9.03;;;4.60;;
31754;SDS011;18325;52.018;4.726;2024-01-27T08:03:32;9.93;;;4.37;;
31754;SDS011;18325;52.018;4.726;2024-01-27T08:05:58;7.53;;;4.40;;
31754;SDS011;18325;52.018;4.726;2024-01-27T08:08:27;8.67;;;4.80;;
31754;SDS011;18325;52.018;4.726;2024-01-27T08:10:53;8.60;;;4.70;;
31754;SDS011;18325;52.018;4.726;2024-01-27T08:13:20;10.23;;;4.50;;
31754;SDS011;18325;52.018;4.726;2024-01-27T08:15:46;6.97;;;4.50;;
31754;SDS011;18325;52.018;4.726;2024-01-27T08:18:13;10.57;;;4.67;;
31754;SDS011;18325;52.018;4.726;2024-01-27T08:20:39;11.27;;;4.77;;
31754;SDS011;18325;52.018;4.726;2024-01-27T08:23:06;9.67;;;4.00;;
31754;SDS011;18325;52.018;4.726;2024-01-27T08:25:34;4.83;;;3.60;;
31754;SDS011;18325;52.018;4.726;2024-01-27T08:28:01;9.97;;;3.97;;
31754;SDS011;18325;52.018;4.726;2024-01-27T08:30:28;6.73;;;4.60;;
31754;SDS011;18325;52.018;4.726;2024-01-27T08:32:55;11.77;;;5.10;;
31754;SDS011;18325;52.018;4.726;2024-01-27T08:35:22;9.33;;;4.63;;
31754;SDS011;18325;52.018;4.726;2024-01-27T08:37:48;9.47;;;4.97;;
31754;SDS011;18325;52.018;4.726;2024-01-27T08:40:15;18.53;;;5.07;;
31754;SDS011;18325;52.018;4.726;2024-01-27T08:42:43;9.20;;;3.93;;
31754;SDS011;18325;52.018;4.726;2024-01-27T08:45:10;7.10;;;5.03;;
31754;SDS011;18325;52.018;4.726;2024-01-27T08:47:37;10.80;;;4.80;;
31754;SDS011;18325;52.018;4.726;2024-01-27T08:50:04;9.73;;;5.40;;
31754;SDS011;18325;52.018;4.726;2024-01-27T08:52:31;13.53;;;5.50;;
31754;SDS011;18325;52.018;4.726;2024-01-27T08:54:58;13.70;;;5.37;;
31754;SDS011;18325;52.018;4.726;2024-01-27T08:57:25;12.07;;;4.73;;
31754;SDS011;18325;52.018;4.726;2024-01-27T08:59:52;11.47;;;4.40;;
31754;SDS011;18325;52.018;4.726;2024-01-27T09:02:19;10.30;;;4.27;;
31754;SDS011;18325;52.018;4.726;2024-01-27T09:04:46;10.70;;;4.90;;
31754;SDS011;18325;52.018;4.726;2024-01-27T09:07:12;16.10;;;5.17;;
31754;SDS011;18325;52.018;4.726;2024-01-27T09:09:39;8.23;;;5.00;;
31754;SDS011;18325;52.018;4.726;2024-01-27T09:12:09;7.50;;;4.90;;
31754;SDS011;18325;52.018;4.726;2024-01-27T09:14:35;16.20;;;4.73;;
31754;SDS011;18325;52.018;4.726;2024-01-27T09:17:03;14.03;;;5.47;;
31754;SDS011;18325;52.018;4.726;2024-01-27T09:19:30;10.30;;;5.30;;
31754;SDS011;18325;52.018;4.726;2024-01-27T09:21:56;15.77;;;5.87;;
31754;SDS011;18325;52.018;4.726;2024-01-27T09:24:23;10.37;;;4.83;;
31754;SDS011;18325;52.018;4.726;2024-01-27T09:26:49;12.80;;;5.10;;
31754;SDS011;18325;52.018;4.726;2024-01-27T09:29:16;10.50;;;4.77;;
31754;SDS011;18325;52.018;4.726;2024-01-27T09:31:44;13.77;;;5.23;;
31754;SDS011;18325;52.018;4.726;2024-01-27T09:34:12;10.90;;;5.03;;
31754;SDS011;18325;52.018;4.726;2024-01-27T09:36:39;11.90;;;5.57;;
31754;SDS011;18325;52.018;4.726;2024-01-27T09:39:06;15.90;;;5.07;;
31754;SDS011;18325;52.018;4.726;2024-01-27T09:41:33;10.40;;;5.50;;
31754;SDS011;18325;52.018;4.726;2024-01-27T09:44:00;12.87;;;5.33;;
31754;SDS011;18325;52.018;4.726;2024-01-27T09:46:28;12.87;;;5.17;;
31754;SDS011;18325;52.018;4.726;2024-01-27T09:48:55;13.83;;;5.37;;
31754;SDS011;18325;52.018;4.726;2024-01-27T09:51:23;10.80;;;4.83;;
31754;SDS011;18325;52.018;4.726;2024-01-27T09:53:51;17.73;;;6.07;;
31754;SDS011;18325;52.018;4.726;2024-01-27T09:56:20;14.90;;;6.17;;
31754;SDS011;18325;52.018;4.726;2024-01-27T09:58:47;14.30;;;5.83;;
31754;SDS011;18325;52.018;4.726;2024-01-27T10:01:15;11.20;;;6.00;;
31754;SDS011;18325;52.018;4.726;2024-01-27T10:03:43;10.60;;;5.13;;
31754;SDS011;18325;52.018;4.726;2024-01-27T10:06:09;8.43;;;6.00;;
31754;SDS011;18325;52.018;4.726;2024-01-27T10:08:38;14.33;;;5.93;;
31754;SDS011;18325;52.018;4.726;2024-01-27T10:11:06;7.23;;;5.63;;
31754;SDS011;18325;52.018;4.726;2024-01-27T10:13:33;8.90;;;5.67;;
31754;SDS011;18325;52.018;4.726;2024-01-27T10:16:00;11.70;;;5.90;;
31754;SDS011;18325;52.018;4.726;2024-01-27T10:18:27;11.40;;;6.13;;
31754;SDS011;18325;52.018;4.726;2024-01-27T10:20:57;42.10;;;17.67;;
31754;SDS011;18325;52.018;4.726;2024-01-27T10:23:24;24.70;;;12.27;;
31754;SDS011;18325;52.018;4.726;2024-01-27T10:25:52;14.60;;;7.90;;
31754;SDS011;18325;52.018;4.726;2024-01-27T10:28:19;21.30;;;7.37;;
31754;SDS011;18325;52.018;4.726;2024-01-27T10:30:47;12.10;;;5.43;;
31754;SDS011;18325;52.018;4.726;2024-01-27T10:33:22;12.57;;;5.90;;
31754;SDS011;18325;52.018;4.726;2024-01-27T10:35:57;15.00;;;5.57;;
31754;SDS011;18325;52.018;4.726;2024-01-27T10:38:32;24.93;;;6.77;;
31754;SDS011;18325;52.018;4.726;2024-01-27T10:41:01;11.67;;;5.63;;
31754;SDS011;18325;52.018;4.726;2024-01-27T10:43:33;19.63;;;6.10;;
31754;SDS011;18325;52.018;4.726;2024-01-27T10:46:01;12.37;;;5.57;;
31754;SDS011;18325;52.018;4.726;2024-01-27T10:48:29;13.00;;;5.43;;
31754;SDS011;18325;52.018;4.726;2024-01-27T10:50:56;10.67;;;5.37;;
31754;SDS011;18325;52.018;4.726;2024-01-27T10:53:24;34.20;;;13.03;;
31754;SDS011;18325;52.018;4.726;2024-01-27T10:55:56;17.53;;;9.67;;
31754;SDS011;18325;52.018;4.726;2024-01-27T10:58:25;20.87;;;8.83;;
31754;SDS011;18325;52.018;4.726;2024-01-27T11:00:53;11.97;;;6.00;;
31754;SDS011;18325;52.018;4.726;2024-01-27T11:03:20;12.93;;;6.23;;
31754;SDS011;18325;52.018;4.726;2024-01-27T11:05:47;17.07;;;6.87;;
31754;SDS011;18325;52.018;4.726;2024-01-27T11:08:15;16.30;;;6.13;;
31754;SDS011;18325;52.018;4.726;2024-01-27T11:10:42;9.57;;;5.37;;
31754;SDS011;18325;52.018;4.726;2024-01-27T11:13:10;10.30;;;5.60;;
31754;SDS011;18325;52.018;4.726;2024-01-27T11:15:38;10.93;;;4.97;;
31754;SDS011;18325;52.018;4.726;2024-01-27T11:18:05;12.37;;;5.40;;
31754;SDS011;18325;52.018;4.726;2024-01-27T11:20:32;14.10;;;6.07;;
31754;SDS011;18325;52.018;4.726;2024-01-27T11:23:08;7.83;;;5.17;;
31754;SDS011;18325;52.018;4.726;2024-01-27T11:25:35;11.30;;;5.27;;
31754;SDS011;18325;52.018;4.726;2024-01-27T11:28:10;13.03;;;5.53;;
31754;SDS011;18325;52.018;4.726;2024-01-27T11:30:39;9.53;;;4.73;;
31754;SDS011;18325;52.018;4.726;2024-01-27T11:33:06;4.43;;;3.20;;
31754;SDS011;18325;52.018;4.726;2024-01-27T11:35:33;13.87;;;4.33;;
31754;SDS011;18325;52.018;4.726;2024-01-27T11:38:00;14.50;;;4.90;;
31754;SDS011;18325;52.018;4.726;2024-01-27T11:40:26;13.83;;;5.37;;
31754;SDS011;18325;52.018;4.726;2024-01-27T11:42:54;11.70;;;4.23;;
31754;SDS011;18325;52.018;4.726;2024-01-27T11:45:21;13.43;;;5.20;;
31754;SDS011;18325;52.018;4.726;2024-01-27T11:47:50;13.37;;;4.33;;
31754;SDS011;18325;52.018;4.726;2024-01-27T11:50:18;17.47;;;4.67;;
31754;SDS011;18325;52.018;4.726;2024-01-27T11:52:45;15.63;;;4.93;;
31754;SDS011;18325;52.018;4.726;2024-01-27T11:55:13;9.80;;;4.27;;
31754;SDS011;18325;52.018;4.726;2024-01-27T11:57:40;11.47;;;5.53;;
31754;SDS011;18325;52.018;4.726;2024-01-27T12:00:07;12.17;;;5.33;;
31754;SDS011;18325;52.018;4.726;2024-01-27T12:02:34;14.13;;;6.27;;
31754;SDS011;18325;52.018;4.726;2024-01-27T12:05:02;10.43;;;5.13;;
31754;SDS011;18325;52.018;4.726;2024-01-27T12:07:29;13.60;;;6.07;;
31754;SDS011;18325;52.018;4.726;2024-01-27T12:09:56;13.77;;;5.10;;
31754;SDS011;18325;52.018;4.726;2024-01-27T12:12:23;26.83;;;6.27;;
31754;SDS011;18325;52.018;4.726;2024-01-27T12:14:50;11.67;;;5.13;;
31754;SDS011;18325;52.018;4.726;2024-01-27T12:17:17;18.17;;;4.63;;
31754;SDS011;18325;52.018;4.726;2024-01-27T12:19:45;17.70;;;4.20;;
31754;SDS011;18325;52.018;4.726;2024-01-27T12:22:21;12.50;;;4.03;;
31754;SDS011;18325;52.018;4.726;2024-01-27T12:24:48;19.27;;;6.60;;
31754;SDS011;18325;52.018;4.726;2024-01-27T12:27:15;13.90;;;4.73;;
31754;SDS011;18325;52.018;4.726;2024-01-27T12:29:42;10.73;;;4.23;;
31754;SDS011;18325;52.018;4.726;2024-01-27T12:32:26;12.07;;;4.30;;
31754;SDS011;18325;52.018;4.726;2024-01-27T12:58:11;8.30;;;4.10;;
31754;SDS011;18325;52.018;4.726;2024-01-27T13:01:05;12.20;;;3.80;;
31754;SDS011;18325;52.018;4.726;2024-01-27T13:13:50;6.53;;;3.80;;
31754;SDS011;18325;52.018;4.726;2024-01-27T13:47:09;16.73;;;4.50;;
31754;SDS011;18325;52.018;4.726;2024-01-27T14:40:18;15.77;;;4.73;;
31754;SDS011;18325;52.018;4.726;2024-01-27T14:42:46;11.43;;;3.83;;
31754;SDS011;18325;52.018;4.726;2024-01-27T14:45:17;16.00;;;5.30;;
31754;SDS011;18325;52.018;4.726;2024-01-27T14:47:45;11.03;;;5.10;;
31754;SDS011;18325;52.018;4.726;2024-01-27T14:50:17;12.97;;;4.17;;
31754;SDS011;18325;52.018;4.726;2024-01-27T14:52:44;17.27;;;9.80;;
31754;SDS011;18325;52.018;4.726;2024-01-27T14:55:10;21.33;;;7.63;;
31754;SDS011;18325;52.018;4.726;2024-01-27T14:57:41;18.90;;;8.40;;
31754;SDS011;18325;52.018;4.726;2024-01-27T15:00:08;13.27;;;6.33;;
31754;SDS011;18325;52.018;4.726;2024-01-27T15:02:39;9.43;;;5.37;;
31754;SDS011;18325;52.018;4.726;2024-01-27T15:05:06;10.27;;;5.70;;
31754;SDS011;18325;52.018;4.726;2024-01-27T15:07:36;14.93;;;5.43;;
31754;SDS011;18325;52.018;4.726;2024-01-27T15:10:04;13.37;;;5.40;;
31754;SDS011;18325;52.018;4.726;2024-01-27T15:12:37;12.43;;;4.83;;
31754;SDS011;18325;52.018;4.726;2024-01-27T15:15:05;14.27;;;4.30;;
31754;SDS011;18325;52.018;4.726;2024-01-27T15:17:33;10.17;;;5.00;;
31754;SDS011;18325;52.018;4.726;2024-01-27T15:20:00;22.30;;;8.43;;
31754;SDS011;18325;52.018;4.726;2024-01-27T15:22:27;19.40;;;8.37;;
31754;SDS011;18325;52.018;4.726;2024-01-27T15:24:54;20.40;;;9.70;;
31754;SDS011;18325;52.018;4.726;2024-01-27T15:27:22;20.70;;;8.07;;
31754;SDS011;18325;52.018;4.726;2024-01-27T15:29:52;12.47;;;5.80;;
31754;SDS011;18325;52.018;4.726;2024-01-27T15:32:21;14.37;;;4.70;;
31754;SDS011;18325;52.018;4.726;2024-01-27T15:38:04;13.43;;;4.60;;
31754;SDS011;18325;52.018;4.726;2024-01-27T15:40:31;10.50;;;4.23;;
31754;SDS011;18325;52.018;4.726;2024-01-27T15:42:59;10.90;;;5.80;;
31754;SDS011;18325;52.018;4.726;2024-01-27T15:45:31;10.23;;;4.23;;
31754;SDS011;18325;52.018;4.726;2024-01-27T15:47:59;21.67;;;5.20;;
31754;SDS011;18325;52.018;4.726;2024-01-27T15:50:26;28.10;;;9.97;;
31754;SDS011;18325;52.018;4.726;2024-01-27T15:52:53;26.77;;;9.17;;
31754;SDS011;18325;52.018;4.726;2024-01-27T15:55:20;15.90;;;6.20;;
31754;SDS011;18325;52.018;4.726;2024-01-27T15:57:46;17.97;;;6.00;;
31754;SDS011;18325;52.018;4.726;2024-01-27T16:00:15;20.43;;;6.33;;
31754;SDS011;18325;52.018;4.726;2024-01-27T16:02:44;19.20;;;6.47;;
31754;SDS011;18325;52.018;4.726;2024-01-27T16:05:12;13.90;;;6.77;;
31754;SDS011;18325;52.018;4.726;2024-01-27T16:07:38;13.63;;;6.63;;
31754;SDS011;18325;52.018;4.726;2024-01-27T16:10:05;12.53;;;5.70;;
31754;SDS011;18325;52.018;4.726;2024-01-27T16:12:32;13.03;;;5.27;;
31754;SDS011;18325;52.018;4.726;2024-01-27T16:14:59;10.63;;;4.00;;
31754;SDS011;18325;52.018;4.726;2024-01-27T16:17:25;15.27;;;4.40;;
31754;SDS011;18325;52.018;4.726;2024-01-27T16:19:52;36.47;;;15.23;;
31754;SDS011;18325;52.018;4.726;2024-01-27T16:22:20;17.40;;;6.10;;
31754;SDS011;18325;52.018;4.726;2024-01-27T16:24:48;11.33;;;5.23;;
31754;SDS011;18325;52.018;4.726;2024-01-27T16:27:15;14.37;;;5.20;;
31754;SDS011;18325;52.018;4.726;2024-01-27T16:29:41;7.87;;;3.83;;
31754;SDS011;18325;52.018;4.726;2024-01-27T16:32:11;9.97;;;4.30;;
31754;SDS011;18325;52.018;4.726;2024-01-27T16:34:39;10.13;;;4.17;;
31754;SDS011;18325;52.018;4.726;2024-01-27T16:37:06;9.57;;;4.10;;
31754;SDS011;18325;52.018;4.726;2024-01-27T16:39:34;18.53;;;5.60;;
31754;SDS011;18325;52.018;4.726;2024-01-27T16:42:01;10.57;;;4.73;;
31754;SDS011;18325;52.018;4.726;2024-01-27T16:44:28;14.63;;;5.73;;
31754;SDS011;18325;52.018;4.726;2024-01-27T16:46:54;8.23;;;4.80;;
31754;SDS011;18325;52.018;4.726;2024-01-27T16:49:21;10.23;;;4.80;;
31754;SDS011;18325;52.018;4.726;2024-01-27T16:51:48;15.40;;;4.23;;
31754;SDS011;18325;52.018;4.726;2024-01-27T16:54:14;13.03;;;6.30;;